North Thompsonville, Connecticut
Current Conditions -  °F | °C
As of 5:51 AM on Sunday 23 Nov 2014 (Local Time) from KBDL Reporting Station
Overcast Overcast  
Wind Chill: 38°   Ceiling: 10000
Heat Index: 43°   Visibility: 10mi
Dew Point: 20°   Wind: 9mph
Humidity: 40%   Direction: 190°S
Pressure: 30.1"   Gusts: NA
Location:  41.9843°N, 72.5534°W
Report Text: KBDL 231051Z 19008KT 10SM SCT055 BKN100 OVC140 06/M07 A3010 RMK AO2 SLP195 T00611067
Loading
Personal Weather Stations






























Interactive Weather Map New forecast layout! Learn more

10-Day Weather Forecast

Advertisements
Track Severe Weather on mobile